sensor_id;sensor_type;location;lat;lon;timestamp;temperature;humidity
22360;DHT22;11347;52.030;4.690;2022-09-09T00:01:35;23.60;54.90
22360;DHT22;11347;52.030;4.690;2022-09-09T00:09:28;23.60;55.10
22360;DHT22;11347;52.030;4.690;2022-09-09T00:12:14;23.60;55.30
22360;DHT22;11347;52.030;4.690;2022-09-09T00:20:47;23.50;55.60
22360;DHT22;11347;52.030;4.690;2022-09-09T00:22:57;23.60;55.90
22360;DHT22;11347;52.030;4.690;2022-09-09T00:25:40;23.50;55.90
22360;DHT22;11347;52.030;4.690;2022-09-09T00:28:18;23.50;56.00
22360;DHT22;11347;52.030;4.690;2022-09-09T00:30:44;23.50;55.90
22360;DHT22;11347;52.030;4.690;2022-09-09T00:33:15;23.50;56.00
22360;DHT22;11347;52.030;4.690;2022-09-09T00:35:47;23.50;56.00
22360;DHT22;11347;52.030;4.690;2022-09-09T00:38:17;23.50;56.30
22360;DHT22;11347;52.030;4.690;2022-09-09T00:40:58;23.50;56.50
22360;DHT22;11347;52.030;4.690;2022-09-09T00:43:37;23.50;56.50
22360;DHT22;11347;52.030;4.690;2022-09-09T00:52:08;23.40;56.30
22360;DHT22;11347;52.030;4.690;2022-09-09T00:55:03;23.40;56.30
22360;DHT22;11347;52.030;4.690;2022-09-09T00:57:35;23.40;56.50
22360;DHT22;11347;52.030;4.690;2022-09-09T01:03:07;23.40;56.60
22360;DHT22;11347;52.030;4.690;2022-09-09T01:05:44;23.40;56.60
22360;DHT22;11347;52.030;4.690;2022-09-09T01:10:56;23.40;56.60
22360;DHT22;11347;52.030;4.690;2022-09-09T01:13:29;23.40;56.40
22360;DHT22;11347;52.030;4.690;2022-09-09T01:15:57;23.40;56.40
22360;DHT22;11347;52.030;4.690;2022-09-09T01:18:27;23.30;56.20
22360;DHT22;11347;52.030;4.690;2022-09-09T01:24:38;23.40;56.20
22360;DHT22;11347;52.030;4.690;2022-09-09T01:26:43;23.30;56.10
22360;DHT22;11347;52.030;4.690;2022-09-09T01:29:12;23.30;56.00
22360;DHT22;11347;52.030;4.690;2022-09-09T01:31:41;23.30;56.10
22360;DHT22;11347;52.030;4.690;2022-09-09T01:34:12;23.30;56.10
22360;DHT22;11347;52.030;4.690;2022-09-09T01:36:43;23.30;56.00
22360;DHT22;11347;52.030;4.690;2022-09-09T01:39:10;23.30;55.90
22360;DHT22;11347;52.030;4.690;2022-09-09T01:41:36;23.30;56.10
22360;DHT22;11347;52.030;4.690;2022-09-09T01:44:03;23.30;56.20
22360;DHT22;11347;52.030;4.690;2022-09-09T01:46:29;23.30;56.30
22360;DHT22;11347;52.030;4.690;2022-09-09T01:48:56;23.30;56.30
22360;DHT22;11347;52.030;4.690;2022-09-09T01:51:22;23.30;56.20
22360;DHT22;11347;52.030;4.690;2022-09-09T01:53:48;23.20;56.10
22360;DHT22;11347;52.030;4.690;2022-09-09T01:59:13;23.30;56.10
22360;DHT22;11347;52.030;4.690;2022-09-09T02:07:09;23.20;56.00
22360;DHT22;11347;52.030;4.690;2022-09-09T02:09:37;23.20;56.10
22360;DHT22;11347;52.030;4.690;2022-09-09T02:12:14;23.20;56.10
22360;DHT22;11347;52.030;4.690;2022-09-09T02:14:50;23.20;56.00
22360;DHT22;11347;52.030;4.690;2022-09-09T02:17:26;23.20;56.20
22360;DHT22;11347;52.030;4.690;2022-09-09T02:19:59;23.20;56.20
22360;DHT22;11347;52.030;4.690;2022-09-09T02:22:28;23.20;56.10
22360;DHT22;11347;52.030;4.690;2022-09-09T02:24:57;23.20;56.10
22360;DHT22;11347;52.030;4.690;2022-09-09T02:27:24;23.20;56.00
22360;DHT22;11347;52.030;4.690;2022-09-09T02:29:51;23.20;56.20
22360;DHT22;11347;52.030;4.690;2022-09-09T02:32:22;23.20;56.20
22360;DHT22;11347;52.030;4.690;2022-09-09T02:34:53;23.20;56.10
22360;DHT22;11347;52.030;4.690;2022-09-09T02:37:22;23.20;56.00
22360;DHT22;11347;52.030;4.690;2022-09-09T02:39:50;23.20;56.00
22360;DHT22;11347;52.030;4.690;2022-09-09T02:42:16;23.20;56.00
22360;DHT22;11347;52.030;4.690;2022-09-09T02:44:42;23.20;55.90
22360;DHT22;11347;52.030;4.690;2022-09-09T02:47:21;23.20;56.00
22360;DHT22;11347;52.030;4.690;2022-09-09T02:49:59;23.20;56.00
22360;DHT22;11347;52.030;4.690;2022-09-09T02:55:16;23.10;55.90
22360;DHT22;11347;52.030;4.690;2022-09-09T02:57:43;23.10;55.90
22360;DHT22;11347;52.030;4.690;2022-09-09T03:00:12;23.10;55.90
22360;DHT22;11347;52.030;4.690;2022-09-09T03:02:38;23.10;55.80
22360;DHT22;11347;52.030;4.690;2022-09-09T03:05:05;23.10;55.90
22360;DHT22;11347;52.030;4.690;2022-09-09T03:07:30;23.10;55.90
22360;DHT22;11347;52.030;4.690;2022-09-09T03:09:56;23.10;55.80
22360;DHT22;11347;52.030;4.690;2022-09-09T03:12:21;23.10;55.80
22360;DHT22;11347;52.030;4.690;2022-09-09T03:14:47;23.10;55.90
22360;DHT22;11347;52.030;4.690;2022-09-09T03:17:13;23.10;55.80
22360;DHT22;11347;52.030;4.690;2022-09-09T03:19:38;23.10;55.80
22360;DHT22;11347;52.030;4.690;2022-09-09T03:22:05;23.10;55.80
22360;DHT22;11347;52.030;4.690;2022-09-09T03:24:31;23.00;55.80
22360;DHT22;11347;52.030;4.690;2022-09-09T03:26:56;23.00;55.80
22360;DHT22;11347;52.030;4.690;2022-09-09T03:29:22;23.00;55.80
22360;DHT22;11347;52.030;4.690;2022-09-09T03:31:48;23.10;55.90
22360;DHT22;11347;52.030;4.690;2022-09-09T03:34:13;23.00;55.80
22360;DHT22;11347;52.030;4.690;2022-09-09T03:36:39;23.10;56.00
22360;DHT22;11347;52.030;4.690;2022-09-09T03:39:06;23.00;55.90
22360;DHT22;11347;52.030;4.690;2022-09-09T03:41:32;23.00;55.80
22360;DHT22;11347;52.030;4.690;2022-09-09T03:43:57;23.00;55.70
22360;DHT22;11347;52.030;4.690;2022-09-09T03:46:25;23.00;55.70
22360;DHT22;11347;52.030;4.690;2022-09-09T03:48:51;23.00;55.70
22360;DHT22;11347;52.030;4.690;2022-09-09T03:51:18;23.00;55.80
22360;DHT22;11347;52.030;4.690;2022-09-09T03:53:44;22.90;55.80
22360;DHT22;11347;52.030;4.690;2022-09-09T03:56:09;22.90;55.80
22360;DHT22;11347;52.030;4.690;2022-09-09T03:58:36;22.90;55.80
22360;DHT22;11347;52.030;4.690;2022-09-09T04:01:03;22.90;55.80
22360;DHT22;11347;52.030;4.690;2022-09-09T04:03:30;22.90;55.70
22360;DHT22;11347;52.030;4.690;2022-09-09T04:05:58;23.00;55.70
22360;DHT22;11347;52.030;4.690;2022-09-09T04:08:24;22.90;55.70
22360;DHT22;11347;52.030;4.690;2022-09-09T04:10:51;22.90;55.70
22360;DHT22;11347;52.030;4.690;2022-09-09T04:13:17;22.90;55.70
22360;DHT22;11347;52.030;4.690;2022-09-09T04:15:54;22.80;55.60
22360;DHT22;11347;52.030;4.690;2022-09-09T04:18:22;22.80;56.20
22360;DHT22;11347;52.030;4.690;2022-09-09T04:20:49;22.80;55.50
22360;DHT22;11347;52.030;4.690;2022-09-09T04:23:15;22.80;55.50
22360;DHT22;11347;52.030;4.690;2022-09-09T04:25:49;22.80;55.60
22360;DHT22;11347;52.030;4.690;2022-09-09T04:28:16;22.80;55.50
22360;DHT22;11347;52.030;4.690;2022-09-09T04:30:42;22.90;55.70
22360;DHT22;11347;52.030;4.690;2022-09-09T04:33:09;22.80;55.50
22360;DHT22;11347;52.030;4.690;2022-09-09T04:35:35;22.80;55.50
22360;DHT22;11347;52.030;4.690;2022-09-09T04:38:01;22.80;55.50
22360;DHT22;11347;52.030;4.690;2022-09-09T04:40:28;22.80;55.60
22360;DHT22;11347;52.030;4.690;2022-09-09T04:42:55;22.80;55.70
22360;DHT22;11347;52.030;4.690;2022-09-09T04:45:20;22.80;55.70
22360;DHT22;11347;52.030;4.690;2022-09-09T04:47:46;22.80;55.70
22360;DHT22;11347;52.030;4.690;2022-09-09T04:50:12;22.80;55.70
22360;DHT22;11347;52.030;4.690;2022-09-09T04:52:37;22.80;55.60
22360;DHT22;11347;52.030;4.690;2022-09-09T04:55:04;22.80;55.70
22360;DHT22;11347;52.030;4.690;2022-09-09T04:57:30;22.70;55.50
22360;DHT22;11347;52.030;4.690;2022-09-09T04:59:57;22.80;55.70
22360;DHT22;11347;52.030;4.690;2022-09-09T05:02:23;22.70;55.60
22360;DHT22;11347;52.030;4.690;2022-09-09T05:04:48;22.70;55.70
22360;DHT22;11347;52.030;4.690;2022-09-09T05:07:15;22.70;55.70
22360;DHT22;11347;52.030;4.690;2022-09-09T05:09:40;22.70;55.70
22360;DHT22;11347;52.030;4.690;2022-09-09T05:12:06;22.70;55.60
22360;DHT22;11347;52.030;4.690;2022-09-09T05:14:32;22.70;55.70
22360;DHT22;11347;52.030;4.690;2022-09-09T05:16:57;22.70;55.60
22360;DHT22;11347;52.030;4.690;2022-09-09T05:19:23;22.70;55.50
22360;DHT22;11347;52.030;4.690;2022-09-09T05:21:49;22.70;55.60
22360;DHT22;11347;52.030;4.690;2022-09-09T05:24:15;22.70;55.60
22360;DHT22;11347;52.030;4.690;2022-09-09T05:26:42;22.70;55.70
22360;DHT22;11347;52.030;4.690;2022-09-09T05:29:08;22.70;55.80
22360;DHT22;11347;52.030;4.690;2022-09-09T05:31:34;22.60;55.70
22360;DHT22;11347;52.030;4.690;2022-09-09T05:34:00;22.60;55.80
22360;DHT22;11347;52.030;4.690;2022-09-09T05:36:26;22.60;55.80
22360;DHT22;11347;52.030;4.690;2022-09-09T05:38:51;22.60;56.00
22360;DHT22;11347;52.030;4.690;2022-09-09T05:41:19;22.60;56.10
22360;DHT22;11347;52.030;4.690;2022-09-09T05:43:45;22.60;56.40
22360;DHT22;11347;52.030;4.690;2022-09-09T05:46:14;22.60;56.60
22360;DHT22;11347;52.030;4.690;2022-09-09T05:48:42;22.60;56.60
22360;DHT22;11347;52.030;4.690;2022-09-09T05:51:10;22.70;56.70
22360;DHT22;11347;52.030;4.690;2022-09-09T05:53:38;22.60;56.60
22360;DHT22;11347;52.030;4.690;2022-09-09T05:56:04;22.60;56.70
22360;DHT22;11347;52.030;4.690;2022-09-09T05:58:31;22.60;56.70
22360;DHT22;11347;52.030;4.690;2022-09-09T06:01:22;22.60;56.70
22360;DHT22;11347;52.030;4.690;2022-09-09T06:03:48;22.70;57.00
22360;DHT22;11347;52.030;4.690;2022-09-09T06:06:22;22.70;57.50
22360;DHT22;11347;52.030;4.690;2022-09-09T06:08:50;22.70;57.80
22360;DHT22;11347;52.030;4.690;2022-09-09T06:11:22;22.70;58.10
22360;DHT22;11347;52.030;4.690;2022-09-09T06:13:48;22.70;58.10
22360;DHT22;11347;52.030;4.690;2022-09-09T06:16:18;22.80;58.40
22360;DHT22;11347;52.030;4.690;2022-09-09T06:18:44;22.70;58.30
22360;DHT22;11347;52.030;4.690;2022-09-09T06:21:21;22.80;58.40
22360;DHT22;11347;52.030;4.690;2022-09-09T06:23:48;22.80;58.50
22360;DHT22;11347;52.030;4.690;2022-09-09T06:26:16;22.80;58.50
22360;DHT22;11347;52.030;4.690;2022-09-09T06:28:46;22.90;58.70
22360;DHT22;11347;52.030;4.690;2022-09-09T06:31:14;22.80;58.40
22360;DHT22;11347;52.030;4.690;2022-09-09T06:33:42;22.80;58.20
22360;DHT22;11347;52.030;4.690;2022-09-09T06:36:20;22.90;58.10
22360;DHT22;11347;52.030;4.690;2022-09-09T06:38:46;22.80;58.10
22360;DHT22;11347;52.030;4.690;2022-09-09T06:41:13;22.90;58.00
22360;DHT22;11347;52.030;4.690;2022-09-09T06:43:39;22.80;57.70
22360;DHT22;11347;52.030;4.690;2022-09-09T06:48:33;22.90;58.20
22360;DHT22;11347;52.030;4.690;2022-09-09T06:53:32;22.90;58.10
22360;DHT22;11347;52.030;4.690;2022-09-09T06:56:24;22.90;57.90
22360;DHT22;11347;52.030;4.690;2022-09-09T06:58:52;22.90;58.00
22360;DHT22;11347;52.030;4.690;2022-09-09T07:01:19;22.90;58.00
22360;DHT22;11347;52.030;4.690;2022-09-09T07:03:47;22.90;58.00
22360;DHT22;11347;52.030;4.690;2022-09-09T07:06:25;22.90;58.10
22360;DHT22;11347;52.030;4.690;2022-09-09T07:08:56;23.00;58.10
22360;DHT22;11347;52.030;4.690;2022-09-09T07:11:25;23.00;58.10
22360;DHT22;11347;52.030;4.690;2022-09-09T07:13:54;22.90;58.00
22360;DHT22;11347;52.030;4.690;2022-09-09T07:16:21;22.90;58.20
22360;DHT22;11347;52.030;4.690;2022-09-09T07:18:51;22.90;58.20
22360;DHT22;11347;52.030;4.690;2022-09-09T07:21:17;23.00;58.30
22360;DHT22;11347;52.030;4.690;2022-09-09T07:23:44;23.00;58.10
22360;DHT22;11347;52.030;4.690;2022-09-09T07:26:10;23.00;57.90
22360;DHT22;11347;52.030;4.690;2022-09-09T07:28:37;23.00;57.70
22360;DHT22;11347;52.030;4.690;2022-09-09T07:31:03;23.10;57.60
22360;DHT22;11347;52.030;4.690;2022-09-09T07:33:31;23.10;57.40
22360;DHT22;11347;52.030;4.690;2022-09-09T07:36:23;23.10;57.10
22360;DHT22;11347;52.030;4.690;2022-09-09T07:38:51;23.10;57.10
22360;DHT22;11347;52.030;4.690;2022-09-09T07:41:22;23.20;57.10
22360;DHT22;11347;52.030;4.690;2022-09-09T07:43:50;23.10;56.90
22360;DHT22;11347;52.030;4.690;2022-09-09T07:46:17;23.10;56.70
22360;DHT22;11347;52.030;4.690;2022-09-09T07:48:45;23.10;56.50
22360;DHT22;11347;52.030;4.690;2022-09-09T07:51:16;23.20;56.60
22360;DHT22;11347;52.030;4.690;2022-09-09T07:53:44;23.20;56.60
22360;DHT22;11347;52.030;4.690;2022-09-09T07:56:11;23.20;56.50
22360;DHT22;11347;52.030;4.690;2022-09-09T07:58:38;23.20;56.50
22360;DHT22;11347;52.030;4.690;2022-09-09T08:01:12;23.20;56.40
22360;DHT22;11347;52.030;4.690;2022-09-09T08:03:38;23.20;56.30
22360;DHT22;11347;52.030;4.690;2022-09-09T08:06:06;23.20;56.00
22360;DHT22;11347;52.030;4.690;2022-09-09T08:08:34;23.20;55.70
22360;DHT22;11347;52.030;4.690;2022-09-09T08:11:11;23.20;55.40
22360;DHT22;11347;52.030;4.690;2022-09-09T08:13:37;23.20;55.20
22360;DHT22;11347;52.030;4.690;2022-09-09T08:16:05;23.20;55.00
22360;DHT22;11347;52.030;4.690;2022-09-09T08:18:31;23.20;54.90
22360;DHT22;11347;52.030;4.690;2022-09-09T08:20:56;23.20;54.80
22360;DHT22;11347;52.030;4.690;2022-09-09T08:23:22;23.20;54.70
22360;DHT22;11347;52.030;4.690;2022-09-09T08:25:48;23.20;54.70
22360;DHT22;11347;52.030;4.690;2022-09-09T08:28:14;23.20;54.70
22360;DHT22;11347;52.030;4.690;2022-09-09T08:30:39;23.20;54.60
22360;DHT22;11347;52.030;4.690;2022-09-09T08:33:05;23.20;54.50
22360;DHT22;11347;52.030;4.690;2022-09-09T08:35:31;23.20;54.50
22360;DHT22;11347;52.030;4.690;2022-09-09T08:37:57;23.20;54.50
22360;DHT22;11347;52.030;4.690;2022-09-09T08:40:28;23.10;54.40
22360;DHT22;11347;52.030;4.690;2022-09-09T08:42:57;23.20;54.40
22360;DHT22;11347;52.030;4.690;2022-09-09T08:45:37;23.10;54.20
22360;DHT22;11347;52.030;4.690;2022-09-09T08:50:42;23.10;54.20
22360;DHT22;11347;52.030;4.690;2022-09-09T08:53:19;23.20;54.40
22360;DHT22;11347;52.030;4.690;2022-09-09T08:55:47;23.10;54.20
22360;DHT22;11347;52.030;4.690;2022-09-09T08:58:20;23.10;54.10
22360;DHT22;11347;52.030;4.690;2022-09-09T09:12:06;23.10;54.10
22360;DHT22;11347;52.030;4.690;2022-09-09T09:14:35;23.10;54.00
22360;DHT22;11347;52.030;4.690;2022-09-09T09:17:10;23.10;54.00
22360;DHT22;11347;52.030;4.690;2022-09-09T09:19:39;23.10;54.00
22360;DHT22;11347;52.030;4.690;2022-09-09T09:22:15;23.10;54.10
22360;DHT22;11347;52.030;4.690;2022-09-09T09:24:47;23.10;54.10
22360;DHT22;11347;52.030;4.690;2022-09-09T09:29:58;23.10;54.10
22360;DHT22;11347;52.030;4.690;2022-09-09T09:32:25;23.10;54.10
22360;DHT22;11347;52.030;4.690;2022-09-09T09:34:56;23.10;54.10
22360;DHT22;11347;52.030;4.690;2022-09-09T09:37:28;23.10;54.10
22360;DHT22;11347;52.030;4.690;2022-09-09T09:39:54;23.10;54.10
22360;DHT22;11347;52.030;4.690;2022-09-09T09:42:20;23.10;54.20
22360;DHT22;11347;52.030;4.690;2022-09-09T09:44:46;23.10;54.10
22360;DHT22;11347;52.030;4.690;2022-09-09T09:47:14;23.10;54.20
22360;DHT22;11347;52.030;4.690;2022-09-09T09:49:53;23.10;54.20
22360;DHT22;11347;52.030;4.690;2022-09-09T09:52:25;23.10;54.20
22360;DHT22;11347;52.030;4.690;2022-09-09T09:54:52;23.10;54.20
22360;DHT22;11347;52.030;4.690;2022-09-09T09:57:24;23.10;54.20
22360;DHT22;11347;52.030;4.690;2022-09-09T10:00:13;23.10;54.20
22360;DHT22;11347;52.030;4.690;2022-09-09T10:02:42;23.20;54.20
22360;DHT22;11347;52.030;4.690;2022-09-09T10:05:24;23.20;54.30
22360;DHT22;11347;52.030;4.690;2022-09-09T10:08:20;23.20;54.20
22360;DHT22;11347;52.030;4.690;2022-09-09T10:13:47;23.20;54.30
22360;DHT22;11347;52.030;4.690;2022-09-09T10:19:15;23.30;54.20
22360;DHT22;11347;52.030;4.690;2022-09-09T10:22:25;23.30;54.10
22360;DHT22;11347;52.030;4.690;2022-09-09T10:38:16;23.30;54.00
22360;DHT22;11347;52.030;4.690;2022-09-09T10:49:15;23.50;54.10
22360;DHT22;11347;52.030;4.690;2022-09-09T10:51:53;23.40;53.90
22360;DHT22;11347;52.030;4.690;2022-09-09T10:56:53;23.50;53.80
22360;DHT22;11347;52.030;4.690;2022-09-09T10:59:24;23.50;53.80
22360;DHT22;11347;52.030;4.690;2022-09-09T11:01:59;23.50;53.80
22360;DHT22;11347;52.030;4.690;2022-09-09T11:04:33;23.50;53.70
22360;DHT22;11347;52.030;4.690;2022-09-09T11:07:09;23.60;53.80
22360;DHT22;11347;52.030;4.690;2022-09-09T11:09:40;23.60;53.70
22360;DHT22;11347;52.030;4.690;2022-09-09T11:12:13;23.60;53.70
22360;DHT22;11347;52.030;4.690;2022-09-09T11:14:47;23.60;53.70
22360;DHT22;11347;52.030;4.690;2022-09-09T11:20:12;23.60;53.80
22360;DHT22;11347;52.030;4.690;2022-09-09T11:22:48;23.60;53.90
22360;DHT22;11347;52.030;4.690;2022-09-09T11:25:36;23.60;53.80
22360;DHT22;11347;52.030;4.690;2022-09-09T11:28:39;23.60;53.70
22360;DHT22;11347;52.030;4.690;2022-09-09T11:42:21;23.70;53.50
22360;DHT22;11347;52.030;4.690;2022-09-09T11:44:47;23.70;53.40
22360;DHT22;11347;52.030;4.690;2022-09-09T11:47:27;23.70;53.40
22360;DHT22;11347;52.030;4.690;2022-09-09T11:52:43;23.80;53.60
22360;DHT22;11347;52.030;4.690;2022-09-09T11:55:30;23.80;53.40
22360;DHT22;11347;52.030;4.690;2022-09-09T11:58:03;23.80;53.20
22360;DHT22;11347;52.030;4.690;2022-09-09T12:03:43;23.80;53.20
22360;DHT22;11347;52.030;4.690;2022-09-09T12:06:30;23.80;53.10
22360;DHT22;11347;52.030;4.690;2022-09-09T12:11:32;23.80;53.20
22360;DHT22;11347;52.030;4.690;2022-09-09T12:13:59;23.80;53.20
22360;DHT22;11347;52.030;4.690;2022-09-09T12:16:30;23.80;53.20
22360;DHT22;11347;52.030;4.690;2022-09-09T12:19:18;23.80;53.20
22360;DHT22;11347;52.030;4.690;2022-09-09T12:22:23;23.70;53.10
22360;DHT22;11347;52.030;4.690;2022-09-09T12:25:26;23.70;53.20
22360;DHT22;11347;52.030;4.690;2022-09-09T12:34:09;23.70;53.50
22360;DHT22;11347;52.030;4.690;2022-09-09T12:36:36;23.70;53.60
22360;DHT22;11347;52.030;4.690;2022-09-09T12:39:24;23.70;53.70
22360;DHT22;11347;52.030;4.690;2022-09-09T12:41:53;23.60;53.70
22360;DHT22;11347;52.030;4.690;2022-09-09T12:44:24;23.60;53.80
22360;DHT22;11347;52.030;4.690;2022-09-09T12:46:51;23.60;54.00
22360;DHT22;11347;52.030;4.690;2022-09-09T12:49:38;23.60;54.00
22360;DHT22;11347;52.030;4.690;2022-09-09T12:52:08;23.60;54.10
22360;DHT22;11347;52.030;4.690;2022-09-09T12:54:44;23.60;54.20
22360;DHT22;11347;52.030;4.690;2022-09-09T12:57:12;23.60;54.20
22360;DHT22;11347;52.030;4.690;2022-09-09T12:59:41;23.60;54.20
22360;DHT22;11347;52.030;4.690;2022-09-09T13:02:21;23.60;54.30
22360;DHT22;11347;52.030;4.690;2022-09-09T13:04:47;23.60;54.40
22360;DHT22;11347;52.030;4.690;2022-09-09T13:07:16;23.60;54.40
22360;DHT22;11347;52.030;4.690;2022-09-09T13:09:43;23.60;54.40
22360;DHT22;11347;52.030;4.690;2022-09-09T13:12:18;23.60;54.50
22360;DHT22;11347;52.030;4.690;2022-09-09T13:14:47;23.60;54.50
22360;DHT22;11347;52.030;4.690;2022-09-09T13:17:21;23.60;54.50
22360;DHT22;11347;52.030;4.690;2022-09-09T13:19:48;23.60;54.50
22360;DHT22;11347;52.030;4.690;2022-09-09T13:22:31;23.60;54.50
22360;DHT22;11347;52.030;4.690;2022-09-09T13:25:13;23.60;54.60
22360;DHT22;11347;52.030;4.690;2022-09-09T13:30:20;23.70;54.70
22360;DHT22;11347;52.030;4.690;2022-09-09T13:32:59;23.60;54.60
22360;DHT22;11347;52.030;4.690;2022-09-09T13:35:26;23.60;54.70
22360;DHT22;11347;52.030;4.690;2022-09-09T13:37:52;23.60;54.60
22360;DHT22;11347;52.030;4.690;2022-09-09T13:40:21;23.60;54.60
22360;DHT22;11347;52.030;4.690;2022-09-09T13:42:55;23.60;54.60
22360;DHT22;11347;52.030;4.690;2022-09-09T13:45:24;23.70;54.70
22360;DHT22;11347;52.030;4.690;2022-09-09T13:47:53;23.70;54.70
22360;DHT22;11347;52.030;4.690;2022-09-09T13:50:24;23.70;54.70
22360;DHT22;11347;52.030;4.690;2022-09-09T13:52:53;23.70;54.60
22360;DHT22;11347;52.030;4.690;2022-09-09T13:55:20;23.70;54.60
22360;DHT22;11347;52.030;4.690;2022-09-09T13:57:54;23.80;54.60
22360;DHT22;11347;52.030;4.690;2022-09-09T14:00:21;23.80;54.60
22360;DHT22;11347;52.030;4.690;2022-09-09T14:02:50;23.80;54.50
22360;DHT22;11347;52.030;4.690;2022-09-09T14:05:17;23.80;54.50
22360;DHT22;11347;52.030;4.690;2022-09-09T14:07:43;23.80;54.30
22360;DHT22;11347;52.030;4.690;2022-09-09T14:10:10;23.80;54.40
22360;DHT22;11347;52.030;4.690;2022-09-09T14:12:36;23.80;54.30
22360;DHT22;11347;52.030;4.690;2022-09-09T14:15:03;23.80;54.30
22360;DHT22;11347;52.030;4.690;2022-09-09T14:17:28;23.80;54.40
22360;DHT22;11347;52.030;4.690;2022-09-09T14:19:55;23.80;54.40
22360;DHT22;11347;52.030;4.690;2022-09-09T14:22:21;23.80;54.60
22360;DHT22;11347;52.030;4.690;2022-09-09T14:24:47;23.80;54.50
22360;DHT22;11347;52.030;4.690;2022-09-09T14:27:13;23.80;54.50
22360;DHT22;11347;52.030;4.690;2022-09-09T14:29:38;23.70;54.50
22360;DHT22;11347;52.030;4.690;2022-09-09T14:32:04;23.70;54.50
22360;DHT22;11347;52.030;4.690;2022-09-09T14:34:29;23.70;54.60
22360;DHT22;11347;52.030;4.690;2022-09-09T14:36:58;23.70;54.60
22360;DHT22;11347;52.030;4.690;2022-09-09T14:39:23;23.70;54.70
22360;DHT22;11347;52.030;4.690;2022-09-09T14:41:49;23.70;54.80
22360;DHT22;11347;52.030;4.690;2022-09-09T14:44:14;23.70;54.80
22360;DHT22;11347;52.030;4.690;2022-09-09T14:46:41;23.70;54.90
22360;DHT22;11347;52.030;4.690;2022-09-09T14:49:07;23.60;54.80
22360;DHT22;11347;52.030;4.690;2022-09-09T14:51:33;23.60;54.80
22360;DHT22;11347;52.030;4.690;2022-09-09T14:53:59;23.60;54.90
22360;DHT22;11347;52.030;4.690;2022-09-09T14:56:27;23.60;55.00
22360;DHT22;11347;52.030;4.690;2022-09-09T14:58:56;23.60;55.00
22360;DHT22;11347;52.030;4.690;2022-09-09T15:01:23;23.60;55.00
22360;DHT22;11347;52.030;4.690;2022-09-09T15:03:51;23.60;55.00
22360;DHT22;11347;52.030;4.690;2022-09-09T15:06:17;23.70;55.10
22360;DHT22;11347;52.030;4.690;2022-09-09T15:08:44;23.70;55.70
22360;DHT22;11347;52.030;4.690;2022-09-09T15:11:11;23.70;55.10
22360;DHT22;11347;52.030;4.690;2022-09-09T15:13:39;23.70;55.10
22360;DHT22;11347;52.030;4.690;2022-09-09T15:16:16;23.70;55.10
22360;DHT22;11347;52.030;4.690;2022-09-09T15:18:43;23.80;55.20
22360;DHT22;11347;52.030;4.690;2022-09-09T15:21:20;23.80;55.10
22360;DHT22;11347;52.030;4.690;2022-09-09T15:23:47;23.80;55.20
22360;DHT22;11347;52.030;4.690;2022-09-09T15:26:12;23.80;55.10
22360;DHT22;11347;52.030;4.690;2022-09-09T15:28:42;23.90;55.20
22360;DHT22;11347;52.030;4.690;2022-09-09T15:36:25;23.90;54.90
22360;DHT22;11347;52.030;4.690;2022-09-09T15:38:52;23.90;54.90
22360;DHT22;11347;52.030;4.690;2022-09-09T15:41:19;24.00;54.90
22360;DHT22;11347;52.030;4.690;2022-09-09T15:43:50;24.00;54.80
22360;DHT22;11347;52.030;4.690;2022-09-09T15:48:56;24.00;54.80
22360;DHT22;11347;52.030;4.690;2022-09-09T15:51:23;24.00;54.60
22360;DHT22;11347;52.030;4.690;2022-09-09T15:53:57;24.00;54.60
22360;DHT22;11347;52.030;4.690;2022-09-09T15:56:24;24.00;54.60
22360;DHT22;11347;52.030;4.690;2022-09-09T15:58:50;24.00;54.50
22360;DHT22;11347;52.030;4.690;2022-09-09T16:01:17;24.00;54.60
22360;DHT22;11347;52.030;4.690;2022-09-09T16:03:44;24.00;54.60
22360;DHT22;11347;52.030;4.690;2022-09-09T16:06:17;24.00;54.60
22360;DHT22;11347;52.030;4.690;2022-09-09T16:08:44;24.00;54.60
22360;DHT22;11347;52.030;4.690;2022-09-09T16:11:13;24.00;54.60
22360;DHT22;11347;52.030;4.690;2022-09-09T16:13:43;24.00;54.50
22360;DHT22;11347;52.030;4.690;2022-09-09T16:16:13;24.00;54.50
22360;DHT22;11347;52.030;4.690;2022-09-09T16:18:42;24.00;54.60
22360;DHT22;11347;52.030;4.690;2022-09-09T16:21:13;23.90;54.40
22360;DHT22;11347;52.030;4.690;2022-09-09T16:23:39;24.00;54.50
22360;DHT22;11347;52.030;4.690;2022-09-09T16:26:05;23.90;54.50
22360;DHT22;11347;52.030;4.690;2022-09-09T16:28:30;23.90;54.50
22360;DHT22;11347;52.030;4.690;2022-09-09T16:30:56;23.90;54.50
22360;DHT22;11347;52.030;4.690;2022-09-09T16:33:23;23.90;54.60
22360;DHT22;11347;52.030;4.690;2022-09-09T16:35:51;23.80;54.60
22360;DHT22;11347;52.030;4.690;2022-09-09T16:38:16;23.90;54.80
22360;DHT22;11347;52.030;4.690;2022-09-09T16:40:42;23.80;54.80
22360;DHT22;11347;52.030;4.690;2022-09-09T16:43:08;23.80;54.90
22360;DHT22;11347;52.030;4.690;2022-09-09T16:45:42;23.80;54.90
22360;DHT22;11347;52.030;4.690;2022-09-09T16:48:07;23.80;54.90
22360;DHT22;11347;52.030;4.690;2022-09-09T16:50:33;23.80;54.90
22360;DHT22;11347;52.030;4.690;2022-09-09T16:52:58;23.80;54.90
22360;DHT22;11347;52.030;4.690;2022-09-09T16:55:24;23.80;54.90
22360;DHT22;11347;52.030;4.690;2022-09-09T16:57:51;23.80;55.00
22360;DHT22;11347;52.030;4.690;2022-09-09T17:00:17;23.80;55.00
22360;DHT22;11347;52.030;4.690;2022-09-09T17:02:43;23.80;55.00
22360;DHT22;11347;52.030;4.690;2022-09-09T17:05:10;23.80;55.10
22360;DHT22;11347;52.030;4.690;2022-09-09T17:07:37;23.80;55.20
22360;DHT22;11347;52.030;4.690;2022-09-09T17:10:04;23.80;55.20
22360;DHT22;11347;52.030;4.690;2022-09-09T17:12:31;23.80;55.20
22360;DHT22;11347;52.030;4.690;2022-09-09T17:14:57;23.80;55.30
22360;DHT22;11347;52.030;4.690;2022-09-09T17:17:24;23.80;55.30
22360;DHT22;11347;52.030;4.690;2022-09-09T17:19:50;23.70;55.30
22360;DHT22;11347;52.030;4.690;2022-09-09T17:22:16;23.80;55.40
22360;DHT22;11347;52.030;4.690;2022-09-09T17:24:41;23.70;55.40
22360;DHT22;11347;52.030;4.690;2022-09-09T17:27:07;23.70;55.30
22360;DHT22;11347;52.030;4.690;2022-09-09T17:29:34;23.70;55.40
22360;DHT22;11347;52.030;4.690;2022-09-09T17:32:02;23.70;55.40
22360;DHT22;11347;52.030;4.690;2022-09-09T17:34:27;23.70;55.40
22360;DHT22;11347;52.030;4.690;2022-09-09T17:36:53;23.70;55.50
22360;DHT22;11347;52.030;4.690;2022-09-09T17:39:19;23.70;55.50
22360;DHT22;11347;52.030;4.690;2022-09-09T17:41:44;23.60;55.30
22360;DHT22;11347;52.030;4.690;2022-09-09T17:44:10;23.60;55.40
22360;DHT22;11347;52.030;4.690;2022-09-09T17:46:38;23.60;55.40
22360;DHT22;11347;52.030;4.690;2022-09-09T17:49:07;23.60;55.50
22360;DHT22;11347;52.030;4.690;2022-09-09T17:51:34;23.60;55.50
22360;DHT22;11347;52.030;4.690;2022-09-09T17:54:04;23.50;55.40